sensor_id;sensor_type;location;lat;lon;timestamp;pressure;altitude;pressure_sealevel;temperature;humidity
20009;BME280;10165;42.662;23.260;2023-09-12T00:00:48;94314.28;;;19.70;46.18
20009;BME280;10165;42.662;23.260;2023-09-12T00:03:20;94312.69;;;19.76;46.14
20009;BME280;10165;42.662;23.260;2023-09-12T00:05:51;94318.81;;;19.83;45.87
20009;BME280;10165;42.662;23.260;2023-09-12T00:08:18;94317.00;;;19.70;46.06
20009;BME280;10165;42.662;23.260;2023-09-12T00:10:45;94315.03;;;19.74;46.05
20009;BME280;10165;42.662;23.260;2023-09-12T00:13:12;94316.13;;;19.83;45.74
20009;BME280;10165;42.662;23.260;2023-09-12T00:15:39;94308.09;;;19.66;46.09
20009;BME280;10165;42.662;23.260;2023-09-12T00:18:06;94319.00;;;19.51;46.62
20009;BME280;10165;42.662;23.260;2023-09-12T00:20:32;94313.16;;;19.60;46.27
20009;BME280;10165;42.662;23.260;2023-09-12T00:22:59;94319.66;;;19.77;45.82
20009;BME280;10165;42.662;23.260;2023-09-12T00:25:26;94314.53;;;19.86;45.75
20009;BME280;10165;42.662;23.260;2023-09-12T00:27:53;94318.78;;;19.90;45.39
20009;BME280;10165;42.662;23.260;2023-09-12T00:30:19;94325.13;;;19.63;45.97
20009;BME280;10165;42.662;23.260;2023-09-12T00:32:46;94320.50;;;19.60;46.20
20009;BME280;10165;42.662;23.260;2023-09-12T00:35:13;94318.22;;;19.58;46.39
20009;BME280;10165;42.662;23.260;2023-09-12T00:37:40;94325.94;;;19.60;46.23
20009;BME280;10165;42.662;23.260;2023-09-12T00:40:07;94331.03;;;19.43;46.54
20009;BME280;10165;42.662;23.260;2023-09-12T00:42:34;94326.41;;;19.37;46.91
20009;BME280;10165;42.662;23.260;2023-09-12T00:45:01;94335.03;;;19.14;47.65
20009;BME280;10165;42.662;23.260;2023-09-12T00:47:28;94339.22;;;19.29;47.23
20009;BME280;10165;42.662;23.260;2023-09-12T00:49:56;94337.25;;;19.37;47.16
20009;BME280;10165;42.662;23.260;2023-09-12T00:52:25;94332.97;;;19.50;46.82
20009;BME280;10165;42.662;23.260;2023-09-12T00:54:53;94330.97;;;19.61;46.65
20009;BME280;10165;42.662;23.260;2023-09-12T00:57:21;94336.03;;;19.55;46.59
20009;BME280;10165;42.662;23.260;2023-09-12T00:59:49;94333.28;;;19.63;46.40
20009;BME280;10165;42.662;23.260;2023-09-12T01:02:16;94335.28;;;19.51;46.73
20009;BME280;10165;42.662;23.260;2023-09-12T01:04:43;94336.03;;;19.52;46.60
20009;BME280;10165;42.662;23.260;2023-09-12T01:07:10;94346.09;;;19.59;46.45
20009;BME280;10165;42.662;23.260;2023-09-12T01:09:37;94332.91;;;19.61;46.51
20009;BME280;10165;42.662;23.260;2023-09-12T01:12:04;94343.81;;;19.46;46.79
20009;BME280;10165;42.662;23.260;2023-09-12T01:14:31;94345.88;;;19.10;47.89
20009;BME280;10165;42.662;23.260;2023-09-12T01:16:58;94345.84;;;19.14;47.76
20009;BME280;10165;42.662;23.260;2023-09-12T01:19:26;94349.31;;;19.18;47.58
20009;BME280;10165;42.662;23.260;2023-09-12T01:27:40;94354.47;;;18.74;48.43
20009;BME280;10165;42.662;23.260;2023-09-12T01:30:09;94356.75;;;18.82;48.50
20009;BME280;10165;42.662;23.260;2023-09-12T01:32:37;94357.50;;;19.00;48.16
20009;BME280;10165;42.662;23.260;2023-09-12T01:35:05;94350.59;;;18.89;48.61
20009;BME280;10165;42.662;23.260;2023-09-12T01:37:32;94348.97;;;19.16;47.56
20009;BME280;10165;42.662;23.260;2023-09-12T01:40:00;94353.22;;;19.10;47.64
20009;BME280;10165;42.662;23.260;2023-09-12T01:42:38;94351.63;;;19.23;47.10
20009;BME280;10165;42.662;23.260;2023-09-12T01:45:09;94350.06;;;19.26;46.82
20009;BME280;10165;42.662;23.260;2023-09-12T01:47:36;94355.09;;;19.31;46.86
20009;BME280;10165;42.662;23.260;2023-09-12T01:50:05;94352.75;;;19.33;46.65
20009;BME280;10165;42.662;23.260;2023-09-12T01:52:35;94353.53;;;19.30;46.73
20009;BME280;10165;42.662;23.260;2023-09-12T01:55:03;94350.06;;;19.26;46.97
20009;BME280;10165;42.662;23.260;2023-09-12T01:57:30;94360.16;;;19.18;47.29
20009;BME280;10165;42.662;23.260;2023-09-12T01:59:57;94353.94;;;19.25;47.11
20009;BME280;10165;42.662;23.260;2023-09-12T02:02:24;94362.50;;;19.13;47.28
20009;BME280;10165;42.662;23.260;2023-09-12T02:07:32;94357.91;;;18.95;47.61
20009;BME280;10165;42.662;23.260;2023-09-12T02:10:00;94365.63;;;19.00;47.69
20009;BME280;10165;42.662;23.260;2023-09-12T02:12:28;94354.81;;;19.00;47.95
20009;BME280;10165;42.662;23.260;2023-09-12T02:14:55;94364.44;;;19.05;47.73
20009;BME280;10165;42.662;23.260;2023-09-12T02:17:21;94362.94;;;19.00;47.71
20009;BME280;10165;42.662;23.260;2023-09-12T02:19:48;94361.75;;;18.98;47.89
20009;BME280;10165;42.662;23.260;2023-09-12T02:22:15;94359.81;;;18.98;47.83
20009;BME280;10165;42.662;23.260;2023-09-12T02:24:42;94356.75;;;19.00;47.62
20009;BME280;10165;42.662;23.260;2023-09-12T02:27:09;94364.06;;;19.06;47.57
20009;BME280;10165;42.662;23.260;2023-09-12T02:29:40;94363.34;;;18.85;47.88
20009;BME280;10165;42.662;23.260;2023-09-12T02:32:07;94361.41;;;18.92;47.83
20009;BME280;10165;42.662;23.260;2023-09-12T02:34:34;94367.16;;;19.01;47.89
20009;BME280;10165;42.662;23.260;2023-09-12T02:37:01;94362.91;;;19.04;47.65
20009;BME280;10165;42.662;23.260;2023-09-12T02:39:27;94364.09;;;18.96;47.77
20009;BME280;10165;42.662;23.260;2023-09-12T02:41:54;94360.97;;;18.97;47.87
20009;BME280;10165;42.662;23.260;2023-09-12T02:44:21;94369.88;;;18.98;48.05
20009;BME280;10165;42.662;23.260;2023-09-12T02:46:47;94366.41;;;19.04;47.75
20009;BME280;10165;42.662;23.260;2023-09-12T02:49:15;94367.59;;;18.93;48.16
20009;BME280;10165;42.662;23.260;2023-09-12T02:51:42;94366.41;;;18.94;48.05
20009;BME280;10165;42.662;23.260;2023-09-12T02:54:09;94368.34;;;18.90;48.19
20009;BME280;10165;42.662;23.260;2023-09-12T02:56:35;94364.91;;;18.89;48.07
20009;BME280;10165;42.662;23.260;2023-09-12T02:59:02;94360.22;;;18.90;48.22
20009;BME280;10165;42.662;23.260;2023-09-12T03:01:30;94361.41;;;18.89;48.25
20009;BME280;10165;42.662;23.260;2023-09-12T03:03:57;94359.47;;;18.89;48.22
20009;BME280;10165;42.662;23.260;2023-09-12T03:06:24;94359.84;;;18.91;47.92
20009;BME280;10165;42.662;23.260;2023-09-12T03:08:50;94366.84;;;18.71;48.45
20009;BME280;10165;42.662;23.260;2023-09-12T03:11:17;94366.84;;;18.64;48.41
20009;BME280;10165;42.662;23.260;2023-09-12T03:13:44;94360.66;;;18.74;48.16
20009;BME280;10165;42.662;23.260;2023-09-12T03:16:11;94365.72;;;18.58;48.50
20009;BME280;10165;42.662;23.260;2023-09-12T03:18:38;94366.47;;;18.62;48.47
20009;BME280;10165;42.662;23.260;2023-09-12T03:21:06;94375.75;;;18.65;48.49
20009;BME280;10165;42.662;23.260;2023-09-12T03:23:33;94367.63;;;18.72;48.03
20009;BME280;10165;42.662;23.260;2023-09-12T03:26:04;94361.06;;;18.73;48.17
20009;BME280;10165;42.662;23.260;2023-09-12T03:28:32;94367.59;;;18.75;48.08
20009;BME280;10165;42.662;23.260;2023-09-12T03:31:09;94365.31;;;18.70;48.08
20009;BME280;10165;42.662;23.260;2023-09-12T03:33:38;94371.13;;;18.61;48.41
20009;BME280;10165;42.662;23.260;2023-09-12T03:36:06;94370.31;;;18.26;48.89
20009;BME280;10165;42.662;23.260;2023-09-12T03:38:34;94374.94;;;18.14;49.11
20009;BME280;10165;42.662;23.260;2023-09-12T03:41:01;94381.50;;;18.10;49.30
20009;BME280;10165;42.662;23.260;2023-09-12T03:43:28;94373.44;;;18.24;49.23
20009;BME280;10165;42.662;23.260;2023-09-12T03:45:55;94375.34;;;18.34;49.06
20009;BME280;10165;42.662;23.260;2023-09-12T03:48:21;94384.22;;;18.21;49.07
20009;BME280;10165;42.662;23.260;2023-09-12T03:50:48;94371.09;;;18.30;48.81
20009;BME280;10165;42.662;23.260;2023-09-12T03:53:15;94378.84;;;18.31;48.86
20009;BME280;10165;42.662;23.260;2023-09-12T03:55:43;94378.06;;;18.27;49.04
20009;BME280;10165;42.662;23.260;2023-09-12T03:58:09;94378.44;;;18.15;49.26
20009;BME280;10165;42.662;23.260;2023-09-12T04:00:36;94376.09;;;18.10;49.27
20009;BME280;10165;42.662;23.260;2023-09-12T04:03:03;94381.91;;;18.19;49.09
20009;BME280;10165;42.662;23.260;2023-09-12T04:05:30;94379.59;;;18.21;49.19
20009;BME280;10165;42.662;23.260;2023-09-12T04:07:57;94378.81;;;18.17;49.15
20009;BME280;10165;42.662;23.260;2023-09-12T04:10:24;94376.88;;;18.17;49.29
20009;BME280;10165;42.662;23.260;2023-09-12T04:12:50;94377.25;;;17.98;49.75
20009;BME280;10165;42.662;23.260;2023-09-12T04:15:17;94377.66;;;18.04;49.66
20009;BME280;10165;42.662;23.260;2023-09-12T04:17:44;94379.59;;;18.14;49.34
20009;BME280;10165;42.662;23.260;2023-09-12T04:20:11;94383.06;;;18.14;49.20
20009;BME280;10165;42.662;23.260;2023-09-12T04:22:43;94385.34;;;18.05;49.53
20009;BME280;10165;42.662;23.260;2023-09-12T04:25:10;94383.44;;;17.95;49.67
20009;BME280;10165;42.662;23.260;2023-09-12T04:27:36;94381.88;;;17.98;49.80
20009;BME280;10165;42.662;23.260;2023-09-12T04:30:04;94388.47;;;18.04;49.74
20009;BME280;10165;42.662;23.260;2023-09-12T04:32:31;94391.16;;;18.11;49.70
20009;BME280;10165;42.662;23.260;2023-09-12T04:34:59;94389.25;;;18.04;49.75
20009;BME280;10165;42.662;23.260;2023-09-12T04:37:26;94394.25;;;18.09;49.58
20009;BME280;10165;42.662;23.260;2023-09-12T04:39:53;94389.25;;;18.11;49.66
20009;BME280;10165;42.662;23.260;2023-09-12T04:42:22;94395.44;;;18.26;49.31
20009;BME280;10165;42.662;23.260;2023-09-12T04:44:49;94393.13;;;18.32;49.67
20009;BME280;10165;42.662;23.260;2023-09-12T04:47:16;94391.56;;;18.34;49.82
20009;BME280;10165;42.662;23.260;2023-09-12T04:49:47;94398.13;;;18.40;49.80
20009;BME280;10165;42.662;23.260;2023-09-12T04:52:14;94393.91;;;18.43;49.84
20009;BME280;10165;42.662;23.260;2023-09-12T04:54:46;94390.41;;;18.46;49.72
20009;BME280;10165;42.662;23.260;2023-09-12T04:57:13;94398.16;;;18.51;49.85
20009;BME280;10165;42.662;23.260;2023-09-12T04:59:40;94398.19;;;18.61;49.53
20009;BME280;10165;42.662;23.260;2023-09-12T05:02:07;94399.31;;;18.64;49.69
20009;BME280;10165;42.662;23.260;2023-09-12T05:04:34;94401.66;;;18.66;49.51
20009;BME280;10165;42.662;23.260;2023-09-12T05:07:01;94401.66;;;18.69;49.50
20009;BME280;10165;42.662;23.260;2023-09-12T05:09:28;94394.69;;;18.65;49.32
20009;BME280;10165;42.662;23.260;2023-09-12T05:11:55;94396.63;;;18.68;49.40
20009;BME280;10165;42.662;23.260;2023-09-12T05:14:22;94396.59;;;18.75;49.20
20009;BME280;10165;42.662;23.260;2023-09-12T05:16:49;94395.84;;;18.78;49.10
20009;BME280;10165;42.662;23.260;2023-09-12T05:19:16;94397.78;;;18.77;48.93
20009;BME280;10165;42.662;23.260;2023-09-12T05:21:42;94402.03;;;18.82;48.70
20009;BME280;10165;42.662;23.260;2023-09-12T05:24:10;94407.06;;;18.69;48.63
20009;BME280;10165;42.662;23.260;2023-09-12T05:26:37;94398.53;;;18.81;48.27
20009;BME280;10165;42.662;23.260;2023-09-12T05:29:04;94406.66;;;18.78;48.06
20009;BME280;10165;42.662;23.260;2023-09-12T05:31:32;94402.41;;;18.77;47.89
20009;BME280;10165;42.662;23.260;2023-09-12T05:33:59;94406.28;;;18.76;47.84
20009;BME280;10165;42.662;23.260;2023-09-12T05:36:25;94398.56;;;18.74;48.16
20009;BME280;10165;42.662;23.260;2023-09-12T05:38:52;94409.75;;;18.80;47.95
20009;BME280;10165;42.662;23.260;2023-09-12T05:41:19;94414.34;;;18.44;48.46
20009;BME280;10165;42.662;23.260;2023-09-12T05:43:46;94412.88;;;18.57;48.42
20009;BME280;10165;42.662;23.260;2023-09-12T05:46:12;94402.00;;;18.99;47.85
20009;BME280;10165;42.662;23.260;2023-09-12T05:48:39;94406.59;;;19.20;47.68
20009;BME280;10165;42.662;23.260;2023-09-12T05:51:06;94401.91;;;19.24;47.48
20009;BME280;10165;42.662;23.260;2023-09-12T05:53:33;94402.66;;;19.42;47.23
20009;BME280;10165;42.662;23.260;2023-09-12T05:55:59;94409.69;;;19.12;47.28
20009;BME280;10165;42.662;23.260;2023-09-12T05:58:27;94401.91;;;19.24;47.23
20009;BME280;10165;42.662;23.260;2023-09-12T06:00:53;94404.28;;;19.12;47.43
20009;BME280;10165;42.662;23.260;2023-09-12T06:03:22;94404.19;;;19.40;46.93
20009;BME280;10165;42.662;23.260;2023-09-12T06:05:48;94397.56;;;19.55;46.74
20009;BME280;10165;42.662;23.260;2023-09-12T06:08:15;94405.25;;;19.71;46.39
20009;BME280;10165;42.662;23.260;2023-09-12T06:10:42;94412.28;;;19.58;46.49
20009;BME280;10165;42.662;23.260;2023-09-12T06:13:09;94410.63;;;19.81;45.96
20009;BME280;10165;42.662;23.260;2023-09-12T06:15:38;94406.63;;;20.03;45.76
20009;BME280;10165;42.662;23.260;2023-09-12T06:18:05;94408.63;;;19.92;45.86
20009;BME280;10165;42.662;23.260;2023-09-12T06:20:32;94419.34;;;19.27;46.82
20009;BME280;10165;42.662;23.260;2023-09-12T06:22:58;94420.47;;;19.29;47.11
20009;BME280;10165;42.662;23.260;2023-09-12T06:25:25;94427.28;;;19.80;46.33
20009;BME280;10165;42.662;23.260;2023-09-12T06:27:52;94419.41;;;20.03;45.13
20009;BME280;10165;42.662;23.260;2023-09-12T06:30:19;94424.00;;;20.13;44.72
20009;BME280;10165;42.662;23.260;2023-09-12T06:32:46;94424.63;;;20.42;44.58
20009;BME280;10165;42.662;23.260;2023-09-12T06:35:13;94429.59;;;20.50;44.47
20009;BME280;10165;42.662;23.260;2023-09-12T06:37:40;94427.53;;;20.69;43.85
20009;BME280;10165;42.662;23.260;2023-09-12T06:40:07;94431.66;;;20.32;44.23
20009;BME280;10165;42.662;23.260;2023-09-12T06:42:34;94428.13;;;20.42;44.45
20009;BME280;10165;42.662;23.260;2023-09-12T06:45:01;94431.16;;;20.48;44.79
20009;BME280;10165;42.662;23.260;2023-09-12T06:47:27;94430.88;;;20.32;44.59
20009;BME280;10165;42.662;23.260;2023-09-12T06:49:54;94433.88;;;20.48;43.90
20009;BME280;10165;42.662;23.260;2023-09-12T06:52:22;94429.69;;;20.36;43.82
20009;BME280;10165;42.662;23.260;2023-09-12T06:54:48;94425.28;;;20.57;43.50
20009;BME280;10165;42.662;23.260;2023-09-12T06:57:15;94434.75;;;20.34;43.55
20009;BME280;10165;42.662;23.260;2023-09-12T06:59:42;94437.94;;;20.15;44.32
20009;BME280;10165;42.662;23.260;2023-09-12T07:02:09;94433.16;;;20.40;43.64
20009;BME280;10165;42.662;23.260;2023-09-12T07:04:38;94431.06;;;20.59;43.64
20009;BME280;10165;42.662;23.260;2023-09-12T07:07:04;94438.03;;;21.11;43.15
20009;BME280;10165;42.662;23.260;2023-09-12T07:09:31;94433.59;;;20.83;42.42
20009;BME280;10165;42.662;23.260;2023-09-12T07:11:58;94437.69;;;21.02;42.93
20009;BME280;10165;42.662;23.260;2023-09-12T07:14:24;94436.75;;;21.23;42.63
20009;BME280;10165;42.662;23.260;2023-09-12T07:16:52;94437.03;;;20.91;42.43
20009;BME280;10165;42.662;23.260;2023-09-12T07:19:18;94431.78;;;20.66;42.63
20009;BME280;10165;42.662;23.260;2023-09-12T07:21:45;94437.72;;;20.98;42.14
20009;BME280;10165;42.662;23.260;2023-09-12T07:24:13;94434.97;;;21.02;41.51
20009;BME280;10165;42.662;23.260;2023-09-12T07:26:39;94436.72;;;21.26;41.58
20009;BME280;10165;42.662;23.260;2023-09-12T07:29:06;94434.00;;;21.26;41.23
20009;BME280;10165;42.662;23.260;2023-09-12T07:31:33;94433.63;;;21.58;40.61
20009;BME280;10165;42.662;23.260;2023-09-12T07:34:00;94438.97;;;21.69;39.84
20009;BME280;10165;42.662;23.260;2023-09-12T07:36:27;94440.94;;;21.31;40.74
20009;BME280;10165;42.662;23.260;2023-09-12T07:38:54;94439.28;;;21.40;40.56
20009;BME280;10165;42.662;23.260;2023-09-12T07:41:20;94443.28;;;21.29;40.42
20009;BME280;10165;42.662;23.260;2023-09-12T07:43:47;94439.53;;;21.53;40.50
20009;BME280;10165;42.662;23.260;2023-09-12T07:46:14;94435.25;;;21.86;39.44
20009;BME280;10165;42.662;23.260;2023-09-12T07:48:40;94434.38;;;21.96;39.66
20009;BME280;10165;42.662;23.260;2023-09-12T07:51:15;94425.53;;;21.85;39.37
20009;BME280;10165;42.662;23.260;2023-09-12T07:53:44;94429.16;;;22.09;39.25
20009;BME280;10165;42.662;23.260;2023-09-12T07:56:11;94427.75;;;22.51;39.20
20009;BME280;10165;42.662;23.260;2023-09-12T07:58:38;94422.13;;;22.65;39.04
20009;BME280;10165;42.662;23.260;2023-09-12T08:01:08;94426.25;;;22.50;38.91
20009;BME280;10165;42.662;23.260;2023-09-12T08:03:37;94432.38;;;22.27;39.08
20009;BME280;10165;42.662;23.260;2023-09-12T08:06:06;94430.00;;;22.32;39.01
20009;BME280;10165;42.662;23.260;2023-09-12T08:08:33;94429.31;;;22.25;38.75
20009;BME280;10165;42.662;23.260;2023-09-12T08:11:01;94435.47;;;22.56;38.48
20009;BME280;10165;42.662;23.260;2023-09-12T08:13:29;94437.38;;;22.59;38.12
20009;BME280;10165;42.662;23.260;2023-09-12T08:15:56;94439.09;;;22.22;38.50
20009;BME280;10165;42.662;23.260;2023-09-12T08:18:27;94430.06;;;21.99;39.42
20009;BME280;10165;42.662;23.260;2023-09-12T08:20:55;94431.16;;;21.71;39.97
20009;BME280;10165;42.662;23.260;2023-09-12T08:23:22;94427.75;;;22.51;39.05
20009;BME280;10165;42.662;23.260;2023-09-12T08:25:49;94440.59;;;22.23;39.17
20009;BME280;10165;42.662;23.260;2023-09-12T08:28:16;94443.59;;;22.32;38.55
20009;BME280;10165;42.662;23.260;2023-09-12T08:30:44;94432.75;;;22.56;38.26
20009;BME280;10165;42.662;23.260;2023-09-12T08:33:13;94434.09;;;22.94;37.43
20009;BME280;10165;42.662;23.260;2023-09-12T08:35:39;94425.94;;;23.17;37.06
20009;BME280;10165;42.662;23.260;2023-09-12T08:38:06;94431.50;;;22.87;37.94
20009;BME280;10165;42.662;23.260;2023-09-12T08:40:33;94422.59;;;23.29;36.91
20009;BME280;10165;42.662;23.260;2023-09-12T08:43:02;94420.19;;;23.55;36.80
20009;BME280;10165;42.662;23.260;2023-09-12T08:45:33;94413.97;;;23.31;36.32
20009;BME280;10165;42.662;23.260;2023-09-12T08:48:00;94417.63;;;23.24;36.97
20009;BME280;10165;42.662;23.260;2023-09-12T08:50:28;94415.22;;;23.50;36.96
20009;BME280;10165;42.662;23.260;2023-09-12T08:52:57;94416.75;;;23.51;36.60
20009;BME280;10165;42.662;23.260;2023-09-12T08:55:33;94412.22;;;23.44;35.88
20009;BME280;10165;42.662;23.260;2023-09-12T08:58:03;94411.81;;;23.22;36.22
20009;BME280;10165;42.662;23.260;2023-09-12T09:00:31;94425.19;;;23.37;36.15
20009;BME280;10165;42.662;23.260;2023-09-12T09:02:59;94424.19;;;23.27;36.08
20009;BME280;10165;42.662;23.260;2023-09-12T09:05:27;94414.88;;;23.24;36.45
20009;BME280;10165;42.662;23.260;2023-09-12T09:07:54;94417.75;;;23.17;36.17
20009;BME280;10165;42.662;23.260;2023-09-12T09:10:22;94418.66;;;23.30;36.23
20009;BME280;10165;42.662;23.260;2023-09-12T09:13:08;94410.53;;;23.70;35.11
20009;BME280;10165;42.662;23.260;2023-09-12T09:15:37;94403.66;;;23.81;34.80
20009;BME280;10165;42.662;23.260;2023-09-12T09:18:09;94403.44;;;23.92;35.01
20009;BME280;10165;42.662;23.260;2023-09-12T09:20:38;94405.03;;;24.09;34.76
20009;BME280;10165;42.662;23.260;2023-09-12T09:23:08;94409.19;;;24.17;35.04
20009;BME280;10165;42.662;23.260;2023-09-12T09:25:42;94398.38;;;24.10;34.48
20009;BME280;10165;42.662;23.260;2023-09-12T09:28:20;94396.09;;;23.89;34.80
20009;BME280;10165;42.662;23.260;2023-09-12T09:30:49;94388.41;;;23.84;34.51
20009;BME280;10165;42.662;23.260;2023-09-12T09:33:18;94390.41;;;24.00;34.10
20009;BME280;10165;42.662;23.260;2023-09-12T09:35:48;94397.53;;;24.13;33.94
20009;BME280;10165;42.662;23.260;2023-09-12T09:38:18;94386.94;;;24.35;34.10
20009;BME280;10165;42.662;23.260;2023-09-12T09:40:46;94386.59;;;24.33;34.13
20009;BME280;10165;42.662;23.260;2023-09-12T09:43:13;94388.31;;;24.43;33.60
20009;BME280;10165;42.662;23.260;2023-09-12T09:45:46;94384.97;;;24.36;33.84
20009;BME280;10165;42.662;23.260;2023-09-12T09:48:23;94381.50;;;24.67;32.79
20009;BME280;10165;42.662;23.260;2023-09-12T09:50:51;94385.31;;;24.70;32.95
20009;BME280;10165;42.662;23.260;2023-09-12T09:53:27;94386.19;;;24.67;32.35
20009;BME280;10165;42.662;23.260;2023-09-12T09:56:13;94376.34;;;24.69;32.64
20009;BME280;10165;42.662;23.260;2023-09-12T10:01:26;94372.75;;;24.72;32.92
20009;BME280;10165;42.662;23.260;2023-09-12T10:03:58;94367.81;;;25.00;32.87
20009;BME280;10165;42.662;23.260;2023-09-12T10:06:27;94369.59;;;25.06;32.88
20009;BME280;10165;42.662;23.260;2023-09-12T10:08:55;94366.53;;;25.04;32.54
20009;BME280;10165;42.662;23.260;2023-09-12T10:11:24;94356.75;;;25.19;32.66
20009;BME280;10165;42.662;23.260;2023-09-12T10:13:57;94360.41;;;25.29;32.98
20009;BME280;10165;42.662;23.260;2023-09-12T10:16:29;94353.28;;;25.32;32.88
20009;BME280;10165;42.662;23.260;2023-09-12T10:19:24;94353.09;;;25.39;34.89
20009;BME280;10165;42.662;23.260;2023-09-12T10:22:03;94345.78;;;25.77;nan
20009;BME280;10165;42.662;23.260;2023-09-12T10:24:34;94351.50;;;24.15;nan
20009;BME280;10165;42.662;23.260;2023-09-12T10:27:03;94347.16;;;23.62;nan
20009;BME280;10165;42.662;23.260;2023-09-12T10:29:31;94351.75;;;23.49;nan
20009;BME280;10165;42.662;23.260;2023-09-12T10:31:59;94349.44;;;23.48;nan
20009;BME280;10165;42.662;23.260;2023-09-12T10:34:27;94346.13;;;23.76;nan
20009;BME280;10165;42.662;23.260;2023-09-12T10:36:55;94351.53;;;24.12;nan
20009;BME280;10165;42.662;23.260;2023-09-12T10:39:27;94337.69;;;24.55;nan
20009;BME280;10165;42.662;23.260;2023-09-12T10:41:54;94343.56;;;24.53;nan
20009;BME280;10165;42.662;23.260;2023-09-12T10:44:23;94342.19;;;24.77;nan
20009;BME280;10165;42.662;23.260;2023-09-12T10:46:51;94339.28;;;25.01;nan
20009;BME280;10165;42.662;23.260;2023-09-12T10:49:22;94337.44;;;25.39;nan
20009;BME280;10165;42.662;23.260;2023-09-12T10:51:51;94333.53;;;25.40;nan
20009;BME280;10165;42.662;23.260;2023-09-12T10:54:35;94329.31;;;25.52;nan
20009;BME280;10165;42.662;23.260;2023-09-12T10:57:09;94323.25;;;25.98;nan
20009;BME280;10165;42.662;23.260;2023-09-12T11:02:33;94325.22;;;26.10;nan
20009;BME280;10165;42.662;23.260;2023-09-12T11:07:58;94318.44;;;26.02;nan
20009;BME280;10165;42.662;23.260;2023-09-12T11:10:27;94310.78;;;26.10;nan
20009;BME280;10165;42.662;23.260;2023-09-12T11:12:57;94319.84;;;25.94;nan
20009;BME280;10165;42.662;23.260;2023-09-12T11:15:27;94307.91;;;25.88;nan
20009;BME280;10165;42.662;23.260;2023-09-12T11:18:05;94305.97;;;26.14;nan
20009;BME280;10165;42.662;23.260;2023-09-12T11:21:08;94309.34;;;26.43;nan
20009;BME280;10165;42.662;23.260;2023-09-12T11:23:35;94300.66;;;26.45;nan
20009;BME280;10165;42.662;23.260;2023-09-12T11:26:07;94301.13;;;26.31;nan
20009;BME280;10165;42.662;23.260;2023-09-12T11:28:35;94301.53;;;26.54;nan
20009;BME280;10165;42.662;23.260;2023-09-12T11:31:04;94307.44;;;26.53;nan
20009;BME280;10165;42.662;23.260;2023-09-12T11:33:31;94291.22;;;26.58;nan
20009;BME280;10165;42.662;23.260;2023-09-12T11:35:59;94295.69;;;26.65;nan
20009;BME280;10165;42.662;23.260;2023-09-12T11:38:29;94294.81;;;27.02;nan
20009;BME280;10165;42.662;23.260;2023-09-12T11:40:58;94292.66;;;26.97;nan
20009;BME280;10165;42.662;23.260;2023-09-12T11:43:27;94288.38;;;26.62;nan
20009;BME280;10165;42.662;23.260;2023-09-12T11:45:55;94283.84;;;27.02;nan
20009;BME280;10165;42.662;23.260;2023-09-12T11:48:22;94281.97;;;26.90;nan
20009;BME280;10165;42.662;23.260;2023-09-12T11:50:53;94281.59;;;27.01;nan
20009;BME280;10165;42.662;23.260;2023-09-12T11:53:28;94278.41;;;27.24;nan
20009;BME280;10165;42.662;23.260;2023-09-12T11:55:59;94275.41;;;27.31;nan
20009;BME280;10165;42.662;23.260;2023-09-12T11:58:26;94279.53;;;27.36;nan
20009;BME280;10165;42.662;23.260;2023-09-12T12:00:57;94280.91;;;27.09;nan
20009;BME280;10165;42.662;23.260;2023-09-12T12:03:27;94267.75;;;27.04;nan
20009;BME280;10165;42.662;23.260;2023-09-12T12:05:55;94270.78;;;26.85;nan
20009;BME280;10165;42.662;23.260;2023-09-12T12:08:23;94264.75;;;27.12;nan
20009;BME280;10165;42.662;23.260;2023-09-12T12:10:53;94273.19;;;27.17;nan
20009;BME280;10165;42.662;23.260;2023-09-12T12:13:21;94264.41;;;27.31;nan
20009;BME280;10165;42.662;23.260;2023-09-12T12:15:49;94266.41;;;27.31;nan
20009;BME280;10165;42.662;23.260;2023-09-12T12:18:16;94271.81;;;27.43;nan
20009;BME280;10165;42.662;23.260;2023-09-12T12:20:43;94263.78;;;27.27;nan
20009;BME280;10165;42.662;23.260;2023-09-12T12:23:09;94255.84;;;27.73;nan
20009;BME280;10165;42.662;23.260;2023-09-12T12:25:37;94256.81;;;27.57;nan
20009;BME280;10165;42.662;23.260;2023-09-12T12:28:04;94255.06;;;27.72;nan
20009;BME280;10165;42.662;23.260;2023-09-12T12:30:32;94255.47;;;27.92;nan
20009;BME280;10165;42.662;23.260;2023-09-12T12:33:08;94252.22;;;27.54;nan
20009;BME280;10165;42.662;23.260;2023-09-12T12:36:05;94248.16;;;27.98;nan
20009;BME280;10165;42.662;23.260;2023-09-12T12:38:36;94240.03;;;28.17;nan
20009;BME280;10165;42.662;23.260;2023-09-12T12:41:08;94246.72;;;28.16;nan
20009;BME280;10165;42.662;23.260;2023-09-12T12:43:35;94251.31;;;27.79;nan
20009;BME280;10165;42.662;23.260;2023-09-12T12:46:02;94248.44;;;27.91;nan
20009;BME280;10165;42.662;23.260;2023-09-12T12:48:33;94242.41;;;28.06;nan
20009;BME280;10165;42.662;23.260;2023-09-12T12:51:21;94244.00;;;27.85;nan
20009;BME280;10165;42.662;23.260;2023-09-12T12:53:53;94233.78;;;27.94;nan
20009;BME280;10165;42.662;23.260;2023-09-12T12:56:27;94239.94;;;28.08;nan
20009;BME280;10165;42.662;23.260;2023-09-12T12:58:59;94235.31;;;27.86;nan
20009;BME280;10165;42.662;23.260;2023-09-12T13:01:29;94234.50;;;27.77;nan
20009;BME280;10165;42.662;23.260;2023-09-12T13:03:56;94235.34;;;27.95;nan
20009;BME280;10165;42.662;23.260;2023-09-12T13:06:23;94238.78;;;28.09;nan
20009;BME280;10165;42.662;23.260;2023-09-12T13:08:52;94234.56;;;27.95;nan
20009;BME280;10165;42.662;23.260;2023-09-12T13:11:19;94228.13;;;28.20;nan
20009;BME280;10165;42.662;23.260;2023-09-12T13:13:48;94229.22;;;28.31;nan
20009;BME280;10165;42.662;23.260;2023-09-12T13:16:17;94233.78;;;27.94;nan
20009;BME280;10165;42.662;23.260;2023-09-12T13:18:44;94223.53;;;28.17;nan